Terminal Aerodrome Forecast
Issued by NWS

Home | Current Version | Previous Version | Text Only | Print | Product List | Glossary On
Versions: 1 2 3 4 5 6 7 8 9 10 11 12 13 14
000
FTUS43 KGRR 291120
TAFLAN
TAF
KLAN 291120Z 2912/3012 15009KT P6SM SKC
     FM291400 17010G20KT P6SM VCSH SCT035 BKN100
     FM291700 20010G20KT P6SM VCTS BKN040CB
     FM300300 19006KT P6SM OVC100
     FM301000 21008KT P6SM VCSH OVC050=

USA.gov is the U.S. government's official web portal to all federal, state and local government web resources and services.